createdAt,value
2019-01-21T00:33:53.891Z,49.98
2019-01-21T00:38:51.714Z,49.81
2019-01-21T00:41:21.049Z,49.81
2019-01-21T00:43:50.155Z,50.01
2019-01-21T00:46:19.500Z,50.13
2019-01-21T00:48:49.844Z,50.13
2019-01-21T00:51:19.621Z,50.43
2019-01-21T00:53:48.709Z,50.41
2019-01-21T00:56:17.815Z,50.65
2019-01-21T00:58:46.893Z,50.37
2019-01-21T01:01:16.005Z,50.65
2019-01-21T01:03:45.095Z,50.65
2019-01-21T01:06:14.262Z,50.84
2019-01-21T01:08:43.431Z,50.84
2019-01-21T01:11:12.559Z,50.74
2019-01-21T01:13:41.656Z,50.76
2019-01-21T01:16:10.724Z,50.63
2019-01-21T01:18:39.843Z,50.63
2019-01-21T01:21:08.949Z,50.49
2019-01-21T01:23:38.176Z,51.02
2019-01-21T01:26:07.208Z,51.02
2019-01-21T01:28:36.482Z,50.65
2019-01-21T01:31:05.663Z,50.83
2019-01-21T01:33:34.727Z,50.83
2019-01-21T01:36:03.820Z,50.68
2019-01-21T01:38:32.848Z,50.59
2019-01-21T01:41:01.947Z,50.67
2019-01-21T01:43:30.968Z,50.75
2019-01-21T01:46:00.100Z,50.86
2019-01-21T01:48:29.182Z,50.86
2019-01-21T01:50:58.453Z,50.97
2019-01-21T01:53:27.547Z,51.05
2019-01-21T01:55:56.672Z,51.05
2019-01-21T01:58:25.757Z,51.04
2019-01-21T02:00:54.849Z,51.33
2019-01-21T02:03:24.102Z,51.34
2019-01-21T02:05:53.221Z,51.33
2019-01-21T02:08:22.233Z,51.18
2019-01-21T02:10:51.377Z,51.33
2019-01-21T02:13:20.491Z,51.13
2019-01-21T02:15:49.587Z,51.13
2019-01-21T02:18:18.682Z,51.21
2019-01-21T02:20:47.830Z,51.13
2019-01-21T02:23:18.077Z,51.13
2019-01-21T02:25:56.957Z,51.17
2019-01-21T02:28:37.640Z,51.49
2019-01-21T02:31:42.804Z,51.49
2019-01-21T02:34:15.898Z,51.50
2019-01-21T02:37:40.399Z,51.63
2019-01-21T02:40:46.886Z,51.76
2019-01-21T02:44:08.896Z,51.76
2019-01-21T02:47:04.167Z,51.82
2019-01-21T02:50:10.534Z,51.63
2019-01-21T02:53:17.217Z,51.64
2019-01-21T02:56:13.388Z,51.69
2019-01-21T02:59:24.614Z,51.86
2019-01-21T03:02:24.861Z,51.90
2019-01-21T03:05:35.479Z,51.84
2019-01-21T03:08:41.593Z,51.76
2019-01-21T03:11:34.575Z,51.76
2019-01-21T03:14:15.651Z,51.92
2019-01-21T03:17:10.563Z,51.97
2019-01-21T03:20:13.617Z,51.85
2019-01-21T03:23:05.141Z,51.78
2019-01-21T03:25:57.352Z,51.81
2019-01-21T03:29:25.637Z,52.05
2019-01-21T03:32:35.802Z,52.15
2019-01-21T03:35:30.785Z,51.97
2019-01-21T03:38:27.224Z,52.28
2019-01-21T03:41:33.564Z,52.27
2019-01-21T03:44:39.393Z,52.30
2019-01-21T03:47:32.712Z,52.33
2019-01-21T03:50:36.581Z,52.20
2019-01-21T03:53:52.684Z,52.09
2019-01-21T03:56:30.971Z,52.19
2019-01-21T03:59:43.667Z,52.00
2019-01-21T04:02:44.188Z,52.00
2019-01-21T04:05:51.651Z,52.11
2019-01-21T04:08:52.451Z,52.15
2019-01-21T04:11:44.178Z,52.26
2019-01-21T04:15:02.445Z,52.29
2019-01-21T04:18:06.757Z,52.38
2019-01-21T04:20:46.895Z,52.59
2019-01-21T04:23:38.627Z,52.38
2019-01-21T04:26:52.317Z,52.32
2019-01-21T04:29:44.170Z,52.40
2019-01-21T04:32:31.214Z,52.40
2019-01-21T04:35:47.543Z,52.37
2019-01-21T04:38:57.573Z,52.30
2019-01-21T04:42:00.422Z,52.25
2019-01-21T04:45:06.690Z,52.27
2019-01-21T04:48:10.023Z,52.40
2019-01-21T04:51:16.706Z,52.41
2019-01-21T04:54:19.228Z,52.48
2019-01-21T04:57:21.402Z,52.64
2019-01-21T05:00:30.554Z,52.64
2019-01-21T05:03:29.351Z,52.52
2019-01-21T05:06:31.583Z,52.44
2019-01-21T05:09:27.750Z,52.47
2019-01-21T05:12:33.909Z,52.48
2019-01-21T05:15:36.658Z,52.33
2019-01-21T05:18:45.102Z,52.30
2019-01-21T05:22:01.389Z,52.32
2019-01-21T05:24:53.569Z,52.37
2019-01-21T05:28:13.133Z,52.29
2019-01-21T05:31:26.219Z,52.24
2019-01-21T05:34:51.594Z,52.35
2019-01-21T05:37:52.844Z,52.42
2019-01-21T05:40:47.010Z,52.40
2019-01-21T05:44:15.433Z,52.26
2019-01-21T05:47:15.790Z,52.27
2019-01-21T05:50:13.568Z,52.29
2019-01-21T05:53:48.001Z,52.26
2019-01-21T05:57:02.718Z,52.30
2019-01-21T05:59:58.635Z,52.36
2019-01-21T06:03:26.745Z,52.38
2019-01-21T06:06:40.923Z,52.23
2019-01-21T06:09:54.151Z,52.23
2019-01-21T06:12:36.707Z,52.27
2019-01-21T06:15:47.116Z,52.27
2019-01-21T06:18:44.797Z,52.36
2019-01-21T06:22:10.073Z,52.38
2019-01-21T06:25:17.100Z,52.32
2019-01-21T06:28:26.120Z,52.27
2019-01-21T06:31:31.709Z,52.23
2019-01-21T06:34:36.581Z,52.22
2019-01-21T06:37:34.288Z,52.21
2019-01-21T06:40:59.461Z,52.28
2019-01-21T06:43:56.544Z,52.37
2019-01-21T06:47:15.395Z,52.38
2019-01-21T06:50:27.377Z,52.44
2019-01-21T06:53:30.167Z,52.41
2019-01-21T06:56:55.423Z,52.49
2019-01-21T07:00:02.230Z,52.55
2019-01-21T07:03:27.513Z,52.43
2019-01-21T07:06:31.426Z,52.32
2019-01-21T07:09:45.065Z,52.43
2019-01-21T07:12:39.188Z,52.37
2019-01-21T07:15:38.409Z,52.31
2019-01-21T07:18:57.716Z,52.35
2019-01-21T07:22:12.563Z,52.35
2019-01-21T07:25:01.357Z,52.18
2019-01-21T07:27:57.915Z,52.21
2019-01-21T07:30:59.777Z,52.25
2019-01-21T07:33:54.732Z,52.29
2019-01-21T07:37:00.663Z,52.24
2019-01-21T07:39:57.548Z,52.16
2019-01-21T07:43:06.835Z,52.21
2019-01-21T07:46:04.522Z,52.18
2019-01-21T07:49:17.623Z,52.33
2019-01-21T07:52:22.935Z,52.25
2019-01-21T07:55:10.883Z,52.08
2019-01-21T07:58:24.248Z,51.90
2019-01-21T08:01:39.288Z,51.85
2019-01-21T08:04:45.617Z,51.75
2019-01-21T08:07:50.746Z,51.63
2019-01-21T08:10:53.561Z,51.53
2019-01-21T08:14:12.708Z,51.63
2019-01-21T08:17:07.069Z,51.57
2019-01-21T08:20:23.237Z,51.52
2019-01-21T08:23:30.824Z,49.98
2019-01-21T08:26:38.229Z,47.68
2019-01-21T08:29:33.875Z,43.12
2019-01-21T08:32:20.951Z,43.12
2019-01-21T08:35:31.082Z,41.24
2019-01-21T08:38:40.132Z,39.33
2019-01-21T08:42:23.618Z,37.44
2019-01-21T08:45:29.601Z,35.80
2019-01-21T08:48:32.350Z,33.49
2019-01-21T08:51:54.661Z,31.96
2019-01-21T08:54:31.975Z,31.17
2019-01-21T08:57:46.112Z,29.70
2019-01-21T09:00:55.872Z,29.34
2019-01-21T09:04:00.635Z,28.57
2019-01-21T09:06:37.580Z,27.47
2019-01-21T09:09:33.167Z,26.79
2019-01-21T09:12:50.126Z,25.69
2019-01-21T09:16:15.178Z,24.70
2019-01-21T09:19:16.160Z,23.84
2019-01-21T09:22:07.906Z,23.80
2019-01-21T09:24:55.746Z,23.03
2019-01-21T09:27:47.644Z,22.44
2019-01-21T09:30:53.684Z,21.92
2019-01-21T09:34:12.905Z,21.60
2019-01-21T09:37:44.552Z,21.10
2019-01-21T09:40:54.110Z,20.53
2019-01-21T09:43:48.491Z,19.94
2019-01-21T09:46:50.711Z,19.51
2019-01-21T09:49:18.273Z,19.00
2019-01-21T09:52:11.626Z,18.65
2019-01-21T09:54:41.554Z,18.32
2019-01-21T09:57:17.328Z,17.55
2019-01-21T09:59:55.007Z,17.34
2019-01-21T10:02:42.864Z,17.00
2019-01-21T10:05:13.880Z,16.75
2019-01-21T10:08:01.375Z,16.26
2019-01-21T10:11:13.494Z,15.96
2019-01-21T10:14:26.771Z,15.53
2019-01-21T10:17:21.057Z,15.28
2019-01-21T10:20:40.323Z,15.02
2019-01-21T10:24:04.919Z,14.45
2019-01-21T10:27:16.853Z,14.37
2019-01-21T10:30:16.971Z,13.97
2019-01-21T10:33:29.946Z,13.57
2019-01-21T10:36:49.037Z,13.17
2019-01-21T10:39:35.729Z,12.82
2019-01-21T10:43:13.341Z,12.62
2019-01-21T10:46:12.629Z,12.35
2019-01-21T10:48:51.250Z,12.00
2019-01-21T10:52:07.550Z,11.96
2019-01-21T10:55:05.844Z,11.50
2019-01-21T10:57:53.418Z,11.18
2019-01-21T11:01:17.402Z,11.02
2019-01-21T11:04:10.854Z,10.95
2019-01-21T11:07:11.951Z,10.69
2019-01-21T11:10:00.962Z,10.46
2019-01-21T11:12:57.003Z,10.21
2019-01-21T11:15:37.503Z,10.15
2019-01-21T11:18:24.022Z,9.89
2019-01-21T11:21:18.409Z,9.71
2019-01-21T11:24:22.094Z,9.55
2019-01-21T11:27:23.260Z,9.45
2019-01-21T11:30:26.697Z,9.43
2019-01-21T11:33:48.559Z,9.42
2019-01-21T11:37:17.222Z,9.35
2019-01-21T11:40:38.311Z,9.38
2019-01-21T11:43:33.573Z,9.15
2019-01-21T11:46:39.779Z,9.06
2019-01-21T11:50:02.331Z,8.97
2019-01-21T11:52:53.782Z,8.70
2019-01-21T11:55:46.573Z,8.49
2019-01-21T11:58:55.909Z,8.38
2019-01-21T12:02:06.258Z,8.21
2019-01-21T12:04:56.360Z,8.06
2019-01-21T12:07:49.764Z,7.88
2019-01-21T12:10:46.370Z,7.82
2019-01-21T12:13:56.527Z,7.79
2019-01-21T12:17:18.531Z,7.56
2019-01-21T12:20:17.023Z,7.35
2019-01-21T12:23:26.364Z,7.10
2019-01-21T12:26:17.859Z,6.93
2019-01-21T12:29:23.832Z,6.82
2019-01-21T12:32:39.693Z,6.67
2019-01-21T12:35:45.979Z,6.68
2019-01-21T12:38:40.923Z,6.64
2019-01-21T12:41:35.311Z,6.71
2019-01-21T13:18:38.970Z,14.50
2019-01-21T13:21:49.746Z,15.67
2019-01-21T13:25:02.572Z,16.83
2019-01-21T13:28:13.076Z,18.00
2019-01-21T13:31:24.215Z,18.94
2019-01-21T13:34:40.740Z,19.87
2019-01-21T13:37:48.691Z,20.67
2019-01-21T13:41:11.550Z,21.35
2019-01-21T14:00:38.828Z,24.28
2019-01-21T14:10:42.625Z,25.30
2019-01-21T14:13:38.778Z,25.47
2019-01-21T14:17:12.310Z,25.86
2019-01-21T14:21:01.159Z,26.19
2019-01-21T14:25:14.710Z,26.35
2019-01-21T14:28:16.409Z,26.55
2019-01-21T14:31:25.065Z,27.00
2019-01-21T14:34:09.783Z,27.30
2019-01-21T14:37:12.944Z,27.60
2019-01-21T14:40:36.012Z,27.94
2019-01-21T14:47:56.565Z,28.23
2019-01-21T14:56:01.554Z,28.62
2019-01-21T14:59:43.677Z,28.98
2019-01-21T15:02:36.294Z,29.33
2019-01-21T15:05:45.048Z,29.45
2019-01-21T15:08:29.230Z,29.64
2019-01-21T15:11:21.231Z,29.87
2019-01-21T15:14:09.725Z,30.15
2019-01-21T15:17:04.555Z,30.25
2019-01-21T15:19:46.122Z,30.41
2019-01-21T15:22:41.681Z,30.56
2019-01-21T15:25:56.779Z,30.69
2019-01-21T15:28:50.476Z,30.88
2019-01-21T15:31:50.173Z,31.10
2019-01-21T15:35:16.764Z,31.53
2019-01-21T15:38:19.601Z,31.70
2019-01-21T15:41:19.685Z,32.03
2019-01-21T15:44:16.020Z,32.22
2019-01-21T15:47:23.396Z,32.45
2019-01-21T15:50:41.387Z,32.73
2019-01-21T15:53:22.924Z,32.78
2019-01-21T15:56:20.006Z,32.96
2019-01-21T15:59:29.513Z,33.22
2019-01-21T16:02:11.827Z,33.50
2019-01-21T16:05:05.651Z,33.73
2019-01-21T16:07:57.732Z,34.02
2019-01-21T16:10:57.981Z,34.28
2019-01-21T16:13:45.296Z,34.54
2019-01-21T16:16:31.632Z,34.68
2019-01-21T16:19:07.600Z,34.94
2019-01-21T16:22:19.751Z,35.08
2019-01-21T16:25:23.909Z,35.22
2019-01-21T16:28:36.332Z,35.42
2019-01-21T16:35:02.285Z,35.57
2019-01-21T16:38:23.912Z,35.78
2019-01-21T16:41:41.837Z,35.97
2019-01-21T16:45:01.029Z,36.15
2019-01-21T16:48:15.425Z,36.26
2019-01-21T16:50:44.724Z,36.43
2019-01-21T16:53:16.529Z,36.51
2019-01-21T16:55:46.543Z,36.78
2019-01-21T16:58:17.446Z,36.94
2019-01-21T17:00:53.571Z,37.06
2019-01-21T17:03:22.784Z,37.18
2019-01-21T17:05:54.725Z,37.45
2019-01-21T17:08:26.220Z,37.46
2019-01-21T17:10:56.458Z,37.60
2019-01-21T17:13:28.358Z,37.71
2019-01-21T17:15:57.485Z,37.77
2019-01-21T17:18:26.870Z,37.73
2019-01-21T17:21:00.530Z,37.82
2019-01-21T17:23:29.689Z,37.88
2019-01-21T17:26:01.314Z,38.01
2019-01-21T17:28:37.809Z,38.11
2019-01-21T17:31:08.227Z,38.19
2019-01-21T17:33:59.799Z,38.20
2019-01-21T17:36:38.093Z,38.26
2019-01-21T17:39:09.601Z,38.38
2019-01-21T17:42:22.953Z,38.60
2019-01-21T17:44:52.792Z,38.74
2019-01-21T17:47:41.938Z,38.94
2019-01-21T17:50:12.534Z,39.08
2019-01-21T17:52:51.712Z,39.09
2019-01-21T17:55:22.575Z,41.15
2019-01-21T17:57:53.447Z,40.35
2019-01-21T18:00:24.002Z,40.29
2019-01-21T18:02:53.436Z,40.46
2019-01-21T18:05:22.801Z,40.36
2019-01-21T18:08:06.043Z,40.41
2019-01-21T18:10:35.284Z,40.38
2019-01-21T18:13:04.359Z,40.81
2019-01-21T18:15:33.562Z,40.75
2019-01-21T18:18:02.707Z,40.88
2019-01-21T18:20:31.795Z,40.63
2019-01-21T18:23:00.920Z,40.44
2019-01-21T18:25:30.023Z,40.85
2019-01-21T18:27:59.103Z,40.70
2019-01-21T18:30:28.765Z,40.54
2019-01-21T18:32:57.886Z,40.44
2019-01-21T18:35:28.022Z,40.33
2019-01-21T18:37:57.237Z,40.24
2019-01-21T18:40:26.352Z,40.23
2019-01-21T18:42:55.477Z,40.23
2019-01-21T18:45:28.405Z,40.19
2019-01-21T18:48:06.312Z,40.24
2019-01-21T18:50:35.772Z,40.31
2019-01-21T18:53:05.089Z,40.41
2019-01-21T18:55:34.421Z,40.50
2019-01-21T18:58:03.770Z,40.58
2019-01-21T19:00:33.010Z,40.70
2019-01-21T19:03:03.646Z,40.79
2019-01-21T19:05:47.740Z,40.90
2019-01-21T19:08:23.362Z,40.94
2019-01-21T19:10:52.714Z,40.89
2019-01-21T19:13:22.111Z,40.92
2019-01-21T19:16:25.849Z,40.99
2019-01-21T19:19:05.464Z,41.13
2019-01-21T19:21:34.900Z,41.17
2019-01-21T19:24:04.272Z,41.29
2019-01-21T19:26:33.641Z,41.72
2019-01-21T19:29:03.279Z,41.72
2019-01-21T19:31:34.477Z,41.70
2019-01-21T19:34:03.674Z,41.74
2019-01-21T19:36:32.873Z,41.86
2019-01-21T19:39:02.156Z,41.93
2019-01-21T19:41:31.268Z,42.09
2019-01-21T19:44:00.299Z,42.13
2019-01-21T19:46:29.619Z,42.30
2019-01-21T19:49:01.108Z,42.13
2019-01-21T19:51:30.425Z,42.50
2019-01-21T19:53:59.672Z,42.50
2019-01-21T19:56:28.968Z,42.44
2019-01-21T19:58:58.115Z,42.44
2019-01-21T20:01:27.697Z,42.54
2019-01-21T20:03:57.220Z,42.96
2019-01-21T20:06:26.512Z,42.96
2019-01-21T20:08:55.584Z,42.68
2019-01-21T20:11:24.687Z,42.76
2019-01-21T20:13:53.739Z,43.18
2019-01-21T20:16:24.343Z,43.33
2019-01-21T20:18:53.528Z,43.40
2019-01-21T20:21:22.603Z,43.63
2019-01-21T20:23:51.798Z,43.65
2019-01-21T20:26:20.892Z,43.88
2019-01-21T20:28:50.050Z,43.89
2019-01-21T20:31:19.042Z,44.27
2019-01-21T20:33:52.017Z,44.48
2019-01-21T20:36:19.075Z,44.46
2019-01-21T20:38:48.158Z,44.63
2019-01-21T20:41:17.254Z,44.76
2019-01-21T20:43:46.414Z,44.84
2019-01-21T20:46:15.691Z,44.91
2019-01-21T20:48:44.773Z,45.01
2019-01-21T20:51:14.015Z,45.04
2019-01-21T20:53:43.301Z,45.17
2019-01-21T20:56:12.389Z,45.28
2019-01-21T20:58:41.667Z,45.26
2019-01-21T21:01:10.743Z,45.37
2019-01-21T21:03:39.857Z,45.29
2019-01-21T21:06:09.263Z,45.34
2019-01-21T21:08:38.372Z,45.50
2019-01-21T21:11:07.400Z,45.65
2019-01-21T21:13:36.462Z,45.73
2019-01-21T21:16:05.517Z,45.79
2019-01-21T21:18:34.583Z,45.85
2019-01-21T21:21:03.651Z,46.01
2019-01-21T21:23:32.728Z,46.08
2019-01-21T21:26:01.809Z,46.37
2019-01-21T21:28:31.290Z,46.37
2019-01-21T21:31:00.327Z,46.40
2019-01-21T21:33:29.438Z,46.55
2019-01-21T21:36:01.277Z,46.57
2019-01-21T21:38:30.383Z,46.61
2019-01-21T21:40:59.427Z,46.71
2019-01-21T21:43:28.517Z,46.67
2019-01-21T21:45:57.566Z,46.75
2019-01-21T21:48:31.725Z,46.63
2019-01-21T21:50:57.545Z,46.49
2019-01-21T21:53:26.629Z,46.58
2019-01-21T21:55:55.739Z,46.62
2019-01-21T21:58:24.939Z,46.43
2019-01-21T22:00:54.036Z,46.55
2019-01-21T22:03:23.122Z,46.68
2019-01-21T22:05:52.168Z,47.07
2019-01-21T22:08:21.449Z,47.14
2019-01-21T22:10:50.572Z,47.20
2019-01-21T22:13:19.735Z,47.33
2019-01-21T22:15:48.785Z,47.23
2019-01-21T22:18:17.829Z,47.47
2019-01-21T22:20:47.175Z,47.43
2019-01-21T22:23:16.242Z,47.20
2019-01-21T22:25:45.297Z,47.05
2019-01-21T22:28:14.322Z,47.18
2019-01-21T22:30:43.384Z,47.18
2019-01-21T22:33:12.890Z,47.17
2019-01-21T22:35:41.927Z,47.10
2019-01-21T22:38:10.966Z,46.65
2019-01-21T22:40:40.907Z,47.03
2019-01-21T22:43:10.372Z,47.25
2019-01-21T22:45:39.524Z,47.22
2019-01-21T22:48:08.660Z,47.19
2019-01-21T22:50:37.727Z,47.18
2019-01-21T22:53:06.809Z,46.86
2019-01-21T22:55:35.977Z,46.86
2019-01-21T22:58:05.335Z,47.12
2019-01-21T23:00:56.214Z,47.18
2019-01-21T23:03:26.460Z,47.40
2019-01-21T23:05:55.608Z,47.84
2019-01-21T23:08:24.866Z,47.78
2019-01-21T23:10:54.279Z,47.78
2019-01-21T23:13:24.626Z,47.94
2019-01-21T23:15:53.749Z,48.00
2019-01-21T23:18:23.009Z,48.00
2019-01-21T23:20:52.463Z,48.64
2019-01-21T23:23:21.601Z,48.64
2019-01-21T23:25:50.655Z,48.78
2019-01-21T23:28:19.779Z,48.36
2019-01-21T23:30:48.824Z,48.82
2019-01-21T23:33:17.904Z,48.82
2019-01-21T23:35:47.178Z,48.58
2019-01-21T23:38:16.208Z,48.86
2019-01-21T23:40:45.239Z,48.70
2019-01-21T23:43:14.348Z,48.70
2019-01-21T23:45:43.435Z,48.82
2019-01-21T23:48:12.564Z,48.82
2019-01-21T23:50:41.591Z,49.11
2019-01-21T23:53:10.691Z,49.11
2019-01-21T23:55:39.748Z,48.86
2019-01-21T23:58:08.868Z,48.95
